Cincinnati, Ohio
Traffic Map
Current Weather Conditions
Cincinnati, Ohio
Few Clouds
Few Clouds
28°
Feels Like: 31°
Wind Chill: 28° Ceiling: Unl
Heat Index: 31° Visibility: 10mi
Dew Point: 23° Wind: 3mph
Humidity: 74% Direction: ° ()
Pressure: 30in Gusts: 0mph
Raw Report DataKLUK 311553Z VRB03KT 10SM FEW029 28/23 A3000 RMK AO2 SLP154 T02780228
Traffic Incident Summary
Active as of:
Severity:
Category:
InformationThere was an issue retrieving the traffic information for this location. Please try a different location or try again shortly.
Advertisements
Track Severe Weather on mobile